Vallonia Springs, New York
Current Conditions -  °F | °C
As of 4:53 AM on Sunday 23 Nov 2014 (Local Time) from KBGM Reporting Station
Light Rain Light Rain  
Wind Chill: 36°   Ceiling: 5000
Heat Index: 41°   Visibility: 10mi
Dew Point: 30°   Wind: 8mph
Humidity: 65%   Direction: 210°SSW
Pressure: 30.05"   Gusts: NA
Location:  42.1592°N, 75.5309°W
Report Text: KBGM 230953Z AUTO 21007KT 10SM -RA SCT041 OVC050 05/M01 A3005 RMK AO2 RAE02B49 SLP189 P0000 T00501011
Loading
Personal Weather Stations






























Interactive Weather Map New forecast layout! Learn more

10-Day Weather Forecast

Advertisements
Track Severe Weather on mobile